Kirsten H — WY7979 — position and weather

sailwx.info

Track history (hours):
 
Tides and Currents Weather Stations Pressure Air Temp Water Temp Dewpoint Dewpoint Depression Visibility Wind Speed Wind Dir Waves Ship Positions

Kirsten H

More information available from US FCC via Universal Licensing System and Coast Guard Vessel Documentation Center.

Last reported at 2014-Jul-22 04:24 UTC. Time now 2014-Jul-29 00:38 UTC.
Position N 54°39' W 130°45'.

Length 22 m; draft 4.2 m.

Type: Tow > 200 m length. MMSI: 366623050.

Date/timePositionNaut miles runAvg speedWind from/ knotsBaromVisibWave heightAir tempDewpointWater temp
2014-Jul-22 04:24N 54°39' W 130°45'6 6.6
2014-Jul-22 03:31N 54°33' W 130°43'7 6.8
2014-Jul-22 02:33N 54°27' W 130°40'7 7.2
2014-Jul-22 01:33N 54°20' W 130°36'7 7.4
2014-Jul-22 00:33N 54°13' W 130°30'142 6.2
2014-Jul-21 01:30N 52°15' W 128°18'6 6.1
2014-Jul-21 00:29N 52°13' W 128°09'10 4.9
2014-Jul-20 22:33N 52°05' W 128°00'6 5.3
2014-Jul-20 21:30N 51°60' W 127°56'27 6.5
2014-Jul-20 17:19N 51°33' W 127°52'5 6.2
2014-Jul-20 16:34N 51°28' W 127°51'12 5.5
2014-Jul-20 14:26N 51°16' W 127°53'5 5.7
2014-Jul-20 13:33N 51°11' W 127°52'5 5.2
2014-Jul-20 12:33N 51°07' W 127°47'6 6.0
2014-Jul-20 11:33N 51°03' W 127°40'7 6.6
2014-Jul-20 10:34N 50°59' W 127°32'7 7.2
2014-Jul-20 09:33N 50°54' W 127°23'7 7.1
2014-Jul-20 08:33N 50°51' W 127°13'7 7.2
2014-Jul-20 07:33N 50°47' W 127°04'79 6.5
2014-Jul-19 19:22N 50°06' W 125°17'7 5.3
2014-Jul-19 18:05N 49°60' W 125°12'3 2.2
2014-Jul-19 16:33N 49°57' W 125°09'4 4.3
2014-Jul-19 15:32N 49°55' W 125°03'4 4.4
2014-Jul-19 14:33N 49°52' W 124°58'4 4.3
2014-Jul-19 13:32N 49°49' W 124°53'4 4.3
2014-Jul-19 12:30N 49°47' W 124°47'5 5.0
2014-Jul-19 11:33N 49°44' W 124°41'5 5.5
2014-Jul-19 10:33N 49°40' W 124°35'5 5.2
2014-Jul-19 09:33N 49°37' W 124°29'5 5.0
2014-Jul-19 08:33N 49°35' W 124°22'5 4.6
2014-Jul-19 07:33N 49°32' W 124°16'5 4.6
2014-Jul-19 06:33N 49°30' W 124°10'4 4.3
2014-Jul-19 05:33N 49°27' W 124°05'5 5.1
2014-Jul-19 04:33N 49°24' W 123°59'6 6.4
2014-Jul-19 03:33N 49°20' W 123°51'6 6.3
2014-Jul-19 02:34N 49°16' W 123°43'7 6.8
2014-Jul-19 01:33N 49°12' W 123°35'6 6.4
2014-Jul-19 00:34N 49°08' W 123°27'7 6.8
2014-Jul-18 23:33N 49°04' W 123°20'6 6.1
2014-Jul-18 22:33N 48°60' W 123°12'5 5.5
2014-Jul-18 21:33N 48°56' W 123°06'6 5.4
2014-Jul-18 20:32N 48°52' W 123°01'6 6.0
2014-Jul-18 19:32N 48°48' W 122°53'6 5.7
2014-Jul-18 18:31N 48°45' W 122°46'6 6.6
2014-Jul-18 17:33N 48°39' W 122°43'8 7.5
2014-Jul-18 16:33N 48°32' W 122°44'3 3.0
2014-Jul-18 15:34N 48°29' W 122°44'7 6.5
2014-Jul-18 14:32N 48°22' W 122°45'7 6.2
2014-Jul-18 13:27N 48°15' W 122°47'16 5.3
2014-Jul-18 10:30N 48°02' W 122°37'7 7.2
2014-Jul-18 09:34N 47°56' W 122°30'8 7.9
2014-Jul-18 08:34N 47°49' W 122°26'8 7.6
2014-Jul-18 07:33N 47°41' W 122°27'7 7.4
2014-Jul-18 06:34N 47°34' W 122°27'7 7.3
2014-Jul-18 05:34N 47°27' W 122°31'7 7.1
2014-Jul-18 04:34N 47°20' W 122°33'4 3.9
2014-Jul-18 03:33N 47°16' W 122°33'4 4.0
2014-Jul-18 02:33N 47°13' W 122°36'5 5.0
2014-Jul-18 01:32N 47°08' W 122°39'0 0.0
2014-Jul-17 22:32N 47°08' W 122°39'1 0.6
2014-Jul-17 21:28N 47°09' W 122°38'0 0.0
2014-Jul-17 20:31N 47°09' W 122°38'0 0.0
2014-Jul-17 19:31N 47°09' W 122°38'0 0.0
2014-Jul-17 18:31N 47°09' W 122°38'1 0.7
2014-Jul-17 17:27N 47°09' W 122°39'6 7.1
2014-Jul-17 16:33N 47°15' W 122°34'8 7.7
2014-Jul-17 15:33N 47°22' W 122°32'7 7.1
2014-Jul-17 14:33N 47°29' W 122°30'7 7.1
2014-Jul-17 13:33N 47°35' W 122°25'4 3.8
2014-Jul-17 12:33N 47°33' W 122°20'  
2014-Jul-14 22:09N 47°32' W 122°20'1 1.1
2014-Jul-14 21:33N 47°33' W 122°20'6 6.1
2014-Jul-14 20:33N 47°38' W 122°25'7 6.8
2014-Jul-14 19:33N 47°43' W 122°32'8 8.0
2014-Jul-14 18:33N 47°50' W 122°29'8 8.2
2014-Jul-14 17:33N 47°57' W 122°35'21 6.9
2014-Jul-14 14:31N 48°17' W 122°47'9 9.3
2014-Jul-14 13:33N 48°26' W 122°44'7 6.8
2014-Jul-14 12:31N 48°31' W 122°37'0 0.0
2014-Jul-14 11:30N 48°31' W 122°37'1 1.4
2014-Jul-14 10:29N 48°31' W 122°39'2 1.8
2014-Jul-14 09:33N 48°31' W 122°42'1 0.8
2014-Jul-14 08:33N 48°31' W 122°43'3 2.8
2014-Jul-14 07:33N 48°29' W 122°44'5 4.7
2014-Jul-14 06:33N 48°24' W 122°44'13 5.2
2014-Jul-14 04:05N 48°11' W 122°46'5 7.2
2014-Jul-14 03:21N 48°08' W 122°40'8 4.1
2014-Jul-14 01:30N 48°01' W 122°36'3 3.5
2014-Jul-14 00:33N 47°58' W 122°34'5 5.0
2014-Jul-13 23:34N 47°54' W 122°28'5 5.0
2014-Jul-13 22:33N 47°50' W 122°27'6 5.5
2014-Jul-13 21:34N 47°44' W 122°26'5 5.3
2014-Jul-13 20:33N 47°39' W 122°27'4 4.2
2014-Jul-13 19:32N 47°36' W 122°22'3 2.6
2014-Jul-13 18:33N 47°33' W 122°21'1 0.3
2014-Jul-13 14:16N 47°32' W 122°20'0 0.1
2014-Jul-13 13:33N 47°32' W 122°20'  
Track history (hours):
 
Tides and Currents Weather Stations Pressure Air Temp Water Temp Dewpoint Dewpoint Depression Visibility Wind Speed Wind Dir Waves Ship Positions

Kirsten H

More information available from US FCC via Universal Licensing System and Coast Guard Vessel Documentation Center.

Last reported at 2014-Jul-22 04:24 UTC. Time now 2014-Jul-29 00:38 UTC.
Position N 54°39' W 130°45'.

Length 22 m; draft 4.2 m.

Type: Tow > 200 m length. MMSI: 366623050.

Date/timePositionNaut miles runAvg speedWind from/ knotsBaromVisibWave heightAir tempDewpointWater temp
2014-Jul-22 04:24N 54°39' W 130°45'6 6.6
2014-Jul-22 03:31N 54°33' W 130°43'7 6.8
2014-Jul-22 02:33N 54°27' W 130°40'7 7.2
2014-Jul-22 01:33N 54°20' W 130°36'7 7.4
2014-Jul-22 00:33N 54°13' W 130°30'142 6.2
2014-Jul-21 01:30N 52°15' W 128°18'6 6.1
2014-Jul-21 00:29N 52°13' W 128°09'10 4.9
2014-Jul-20 22:33N 52°05' W 128°00'6 5.3
2014-Jul-20 21:30N 51°60' W 127°56'27 6.5
2014-Jul-20 17:19N 51°33' W 127°52'5 6.2
2014-Jul-20 16:34N 51°28' W 127°51'12 5.5
2014-Jul-20 14:26N 51°16' W 127°53'5 5.7
2014-Jul-20 13:33N 51°11' W 127°52'5 5.2
2014-Jul-20 12:33N 51°07' W 127°47'6 6.0
2014-Jul-20 11:33N 51°03' W 127°40'7 6.6
2014-Jul-20 10:34N 50°59' W 127°32'7 7.2
2014-Jul-20 09:33N 50°54' W 127°23'7 7.1
2014-Jul-20 08:33N 50°51' W 127°13'7 7.2
2014-Jul-20 07:33N 50°47' W 127°04'79 6.5
2014-Jul-19 19:22N 50°06' W 125°17'7 5.3
2014-Jul-19 18:05N 49°60' W 125°12'3 2.2
2014-Jul-19 16:33N 49°57' W 125°09'4 4.3
2014-Jul-19 15:32N 49°55' W 125°03'4 4.4
2014-Jul-19 14:33N 49°52' W 124°58'4 4.3
2014-Jul-19 13:32N 49°49' W 124°53'4 4.3
2014-Jul-19 12:30N 49°47' W 124°47'5 5.0
2014-Jul-19 11:33N 49°44' W 124°41'5 5.5
2014-Jul-19 10:33N 49°40' W 124°35'5 5.2
2014-Jul-19 09:33N 49°37' W 124°29'5 5.0
2014-Jul-19 08:33N 49°35' W 124°22'5 4.6
2014-Jul-19 07:33N 49°32' W 124°16'5 4.6
2014-Jul-19 06:33N 49°30' W 124°10'4 4.3
2014-Jul-19 05:33N 49°27' W 124°05'5 5.1
2014-Jul-19 04:33N 49°24' W 123°59'6 6.4
2014-Jul-19 03:33N 49°20' W 123°51'6 6.3
2014-Jul-19 02:34N 49°16' W 123°43'7 6.8
2014-Jul-19 01:33N 49°12' W 123°35'6 6.4
2014-Jul-19 00:34N 49°08' W 123°27'7 6.8
2014-Jul-18 23:33N 49°04' W 123°20'6 6.1
2014-Jul-18 22:33N 48°60' W 123°12'5 5.5
2014-Jul-18 21:33N 48°56' W 123°06'6 5.4
2014-Jul-18 20:32N 48°52' W 123°01'6 6.0
2014-Jul-18 19:32N 48°48' W 122°53'6 5.7
2014-Jul-18 18:31N 48°45' W 122°46'6 6.6
2014-Jul-18 17:33N 48°39' W 122°43'8 7.5
2014-Jul-18 16:33N 48°32' W 122°44'3 3.0
2014-Jul-18 15:34N 48°29' W 122°44'7 6.5
2014-Jul-18 14:32N 48°22' W 122°45'7 6.2
2014-Jul-18 13:27N 48°15' W 122°47'16 5.3
2014-Jul-18 10:30N 48°02' W 122°37'7 7.2
2014-Jul-18 09:34N 47°56' W 122°30'8 7.9
2014-Jul-18 08:34N 47°49' W 122°26'8 7.6
2014-Jul-18 07:33N 47°41' W 122°27'7 7.4
2014-Jul-18 06:34N 47°34' W 122°27'7 7.3
2014-Jul-18 05:34N 47°27' W 122°31'7 7.1
2014-Jul-18 04:34N 47°20' W 122°33'4 3.9
2014-Jul-18 03:33N 47°16' W 122°33'4 4.0
2014-Jul-18 02:33N 47°13' W 122°36'5 5.0
2014-Jul-18 01:32N 47°08' W 122°39'0 0.0
2014-Jul-17 22:32N 47°08' W 122°39'1 0.6
2014-Jul-17 21:28N 47°09' W 122°38'0 0.0
2014-Jul-17 20:31N 47°09' W 122°38'0 0.0
2014-Jul-17 19:31N 47°09' W 122°38'0 0.0
2014-Jul-17 18:31N 47°09' W 122°38'1 0.7
2014-Jul-17 17:27N 47°09' W 122°39'6 7.1
2014-Jul-17 16:33N 47°15' W 122°34'8 7.7
2014-Jul-17 15:33N 47°22' W 122°32'7 7.1
2014-Jul-17 14:33N 47°29' W 122°30'7 7.1
2014-Jul-17 13:33N 47°35' W 122°25'4 3.8
2014-Jul-17 12:33N 47°33' W 122°20'  
2014-Jul-14 22:09N 47°32' W 122°20'1 1.1
2014-Jul-14 21:33N 47°33' W 122°20'6 6.1
2014-Jul-14 20:33N 47°38' W 122°25'7 6.8
2014-Jul-14 19:33N 47°43' W 122°32'8 8.0
2014-Jul-14 18:33N 47°50' W 122°29'8 8.2
2014-Jul-14 17:33N 47°57' W 122°35'21 6.9
2014-Jul-14 14:31N 48°17' W 122°47'9 9.3
2014-Jul-14 13:33N 48°26' W 122°44'7 6.8
2014-Jul-14 12:31N 48°31' W 122°37'0 0.0
2014-Jul-14 11:30N 48°31' W 122°37'1 1.4
2014-Jul-14 10:29N 48°31' W 122°39'2 1.8
2014-Jul-14 09:33N 48°31' W 122°42'1 0.8
2014-Jul-14 08:33N 48°31' W 122°43'3 2.8
2014-Jul-14 07:33N 48°29' W 122°44'5 4.7
2014-Jul-14 06:33N 48°24' W 122°44'13 5.2
2014-Jul-14 04:05N 48°11' W 122°46'5 7.2
2014-Jul-14 03:21N 48°08' W 122°40'8 4.1
2014-Jul-14 01:30N 48°01' W 122°36'3 3.5
2014-Jul-14 00:33N 47°58' W 122°34'5 5.0
2014-Jul-13 23:34N 47°54' W 122°28'5 5.0
2014-Jul-13 22:33N 47°50' W 122°27'6 5.5
2014-Jul-13 21:34N 47°44' W 122°26'5 5.3
2014-Jul-13 20:33N 47°39' W 122°27'4 4.2
2014-Jul-13 19:32N 47°36' W 122°22'3 2.6
2014-Jul-13 18:33N 47°33' W 122°21'1 0.3
2014-Jul-13 14:16N 47°32' W 122°20'0 0.1
2014-Jul-13 13:33N 47°32' W 122°20'  

Dump ship's entire track history